Weather at Logan International Airport

Public forecast

Using degrees Fahrenheit for public forecast. Weather courtesy of forecast.io.

Current aviation weather report (METAR) for Logan International Airport

Retrieved 2022/05/23 06:54 UTC (51 minutes ago):

KBOS 230654Z 31011KT 10SM BKN018 21/18 A2999 RMK AO2 SLP155 T02110183

Aviation forecast (TAF) for Logan International Airport

Retrieved 2022/05/23 06:53 UTC (52 minutes ago):

TAF KBOS 230543Z 2306/2412 29008KT P6SM SCT150 FM231200 34011KT P6SM BKN200 FM231600 02008KT P6SM SCT250 FM231900 07008KT P6SM SCT250 FM240200 01003KT P6SM BKN250 FM240800 02007KT P6SM BKN140